Time;durP1;ratioP1;P1;durP2;ratioP2;P2;SDS_P1;SDS_P2;PMS_P1;PMS_P2;Temp;Humidity;BMP_temperature;BMP_pressure;BME280_temperature;BME280_humidity;BME280_pressure;Samples;Min_cycle;Max_cycle;Signal;HPM_P1;HPM_P2
2023/01/14 00:00:18;;;;;;;1.83;1.75;;;;;;;8.18;69.25;100913.09;18419100;31;20201;-58
2023/01/14 00:10:22;;;;;;;0.77;0.77;;;;;;;8.10;69.75;100919.91;18419311;32;20096;-58
2023/01/14 00:20:27;;;;;;;1.95;1.80;;;;;;;8.31;68.99;100914.19;18418452;32;20161;-57
2023/01/14 00:30:32;;;;;;;3.53;2.17;;;;;;;8.42;68.49;100888.34;18419589;32;20116;-58
2023/01/14 00:40:35;;;;;;;0.82;0.82;;;;;;;8.26;68.29;100876.84;18427497;32;20104;-58
2023/01/14 00:50:40;;;;;;;0.77;0.77;;;;;;;8.14;68.52;100893.97;18426663;32;20682;-58
2023/01/14 01:00:45;;;;;;;2.55;2.37;;;;;;;8.09;68.92;100911.25;18426465;31;20089;-58
2023/01/14 01:10:51;;;;;;;0.73;0.73;;;;;;;8.25;68.61;100901.06;18426471;32;20093;-57
2023/01/14 01:21:01;;;;;;;1.42;1.33;;;;;;;8.08;69.48;100911.22;18427067;32;20089;-58
2023/01/14 01:31:07;;;;;;;0.65;0.65;;;;;;;8.23;68.94;100908.88;18425572;32;20085;-58
2023/01/14 01:41:15;;;;;;;1.17;1.17;;;;;;;8.25;69.11;100908.88;18425762;32;20084;-58
2023/01/14 01:51:21;;;;;;;1.30;0.98;;;;;;;8.28;69.22;100899.41;18424933;32;20093;-58
2023/01/14 02:01:25;;;;;;;0.88;0.88;;;;;;;8.32;69.00;100903.81;18424217;31;20373;-58
2023/01/14 02:11:39;;;;;;;2.35;2.03;;;;;;;8.32;69.11;100914.22;18424322;32;20093;-58
2023/01/14 02:21:46;;;;;;;1.12;1.08;;;;;;;8.22;69.07;100914.03;18423830;32;20089;-58
2023/01/14 02:31:54;;;;;;;1.52;1.42;;;;;;;8.13;69.41;100915.63;18422926;32;20178;-58
2023/01/14 02:52:24;;;;;;;3.62;2.08;;;;;;;8.19;69.23;100927.88;18421888;32;20125;-57
2023/01/14 03:02:42;;;;;;;4.95;3.28;;;;;;;7.74;70.90;100930.59;18421601;31;20128;-57
2023/01/14 03:12:49;;;;;;;1.15;1.02;;;;;;;7.93;70.43;100937.84;18421701;32;20354;-57
2023/01/14 03:22:55;;;;;;;1.55;1.45;;;;;;;8.17;69.40;100951.25;18422034;32;20081;-57
2023/01/14 03:33:03;;;;;;;4.45;4.03;;;;;;;8.15;69.16;100947.75;18420661;32;20122;-58
2023/01/14 03:43:12;;;;;;;0.98;0.98;;;;;;;8.19;69.18;100957.34;18420083;32;20112;-58
2023/01/14 03:53:21;;;;;;;0.95;0.73;;;;;;;8.19;69.17;100975.56;18419775;32;20095;-58
2023/01/14 04:03:25;;;;;;;7.78;1.27;;;;;;;8.15;69.01;100976.34;18391474;32;20426;-58
2023/01/14 04:23:50;;;;;;;0.60;0.60;;;;;;;7.63;71.25;100974.56;18354297;32;20399;-58
2023/01/14 04:33:55;;;;;;;1.55;1.45;;;;;;;7.74;70.62;100990.38;18353914;32;20112;-58
2023/01/14 04:43:59;;;;;;;0.75;0.75;;;;;;;6.91;72.88;101002.50;18354484;32;20105;-58
2023/01/14 04:54:03;;;;;;;1.37;1.02;;;;;;;7.71;70.82;100990.28;18353057;32;20138;-58
2023/01/14 05:04:06;;;;;;;1.55;1.45;;;;;;;7.80;69.91;101005.22;18353492;32;20098;-57
2023/01/14 05:14:11;;;;;;;0.75;0.75;;;;;;;7.96;69.36;101015.88;18353300;32;20097;-57
2023/01/14 05:24:14;;;;;;;0.95;0.95;;;;;;;7.93;69.65;101021.91;18362280;32;20481;-58
2023/01/14 05:34:18;;;;;;;0.73;0.73;;;;;;;7.85;69.76;101018.28;18361773;32;20098;-58
2023/01/14 05:54:43;;;;;;;0.93;0.93;;;;;;;8.02;69.07;101036.81;18360399;32;20449;-57
2023/01/14 06:15:10;;;;;;;0.80;0.80;;;;;;;7.68;69.64;101044.81;18360132;32;20108;-58
2023/01/14 06:25:13;;;;;;;0.73;0.73;;;;;;;7.83;69.20;101052.03;18359613;32;20383;-58
2023/01/14 06:35:18;;;;;;;0.50;0.50;;;;;;;7.17;70.68;101054.13;18358041;32;20115;-58
2023/01/14 06:45:21;;;;;;;0.80;0.80;;;;;;;6.49;73.64;101054.28;18377932;32;20093;-58
2023/01/14 06:55:26;;;;;;;0.60;0.60;;;;;;;7.47;68.99;101059.12;18389835;32;20709;-58
2023/01/14 07:05:29;;;;;;;1.02;1.02;;;;;;;7.41;69.42;101077.16;18421477;32;20096;-59
2023/01/14 07:15:34;;;;;;;0.90;0.90;;;;;;;7.30;69.54;101092.53;18421634;32;20108;-58
2023/01/14 07:25:39;;;;;;;2.05;1.87;;;;;;;7.41;69.33;101104.87;18421089;32;20449;-58
2023/01/14 07:35:44;;;;;;;0.98;0.98;;;;;;;7.37;69.47;101096.16;18420249;32;20089;-58
2023/01/14 07:45:47;;;;;;;0.93;0.93;;;;;;;7.43;69.22;101118.78;18420629;32;20698;-58
2023/01/14 07:55:52;;;;;;;0.80;0.80;;;;;;;7.46;68.90;101108.44;18417311;32;20111;-58
2023/01/14 08:05:55;;;;;;;1.55;1.45;;;;;;;5.87;74.62;101147.66;18419227;32;20111;-58
2023/01/14 08:16:01;;;;;;;0.70;0.70;;;;;;;6.74;72.13;101142.25;18418783;32;20467;-58
2023/01/14 08:26:07;;;;;;;0.65;0.65;;;;;;;6.74;72.44;101140.53;18418561;32;20100;-58
2023/01/14 08:36:14;;;;;;;0.77;0.75;;;;;;;7.22;70.55;101135.63;18418938;32;20433;-58
2023/01/14 08:46:18;;;;;;;1.15;1.12;;;;;;;7.41;70.51;101146.44;18417637;32;20089;-58
2023/01/14 08:56:22;;;;;;;1.42;1.33;;;;;;;6.80;72.64;101142.41;18423202;32;20106;-58
2023/01/14 09:06:25;;;;;;;1.35;1.25;;;;;;;7.45;70.13;101166.44;18427721;32;20118;-58
2023/01/14 09:26:48;;;;;;;1.08;1.02;;;;;;;7.97;69.72;101171.91;18418939;32;20097;-58
2023/01/14 09:36:53;;;;;;;0.88;0.85;;;;;;;7.98;69.76;101163.25;18426336;32;20109;-58
2023/01/14 09:46:56;;;;;;;0.80;0.80;;;;;;;8.33;68.85;101162.22;18425128;32;20478;-58
2023/01/14 09:57:11;;;;;;;2.28;1.95;;;;;;;8.53;68.00;101153.94;18425533;32;20175;-58
2023/01/14 10:07:16;;;;;;;0.60;0.60;;;;;;;7.74;71.22;101137.63;18403620;32;20135;-58
2023/01/14 10:17:23;;;;;;;1.12;1.08;;;;;;;7.48;73.74;101144.03;18423880;32;20181;-58
2023/01/14 10:27:32;;;;;;;0.88;0.82;;;;;;;7.22;74.90;101151.22;18423485;32;20098;-58
2023/01/14 10:37:38;;;;;;;1.20;1.20;;;;;;;7.93;73.60;101144.09;18424003;32;20406;-58
2023/01/14 10:47:41;;;;;;;1.70;1.60;;;;;;;8.88;70.11;101125.03;18422690;32;20092;-59
2023/01/14 10:57:50;;;;;;;2.97;2.50;;;;;;;8.52;69.08;101126.16;18421887;32;20445;-59
2023/01/14 11:07:55;;;;;;;0.70;0.70;;;;;;;9.13;66.83;101104.63;18421490;32;20108;-58
2023/01/14 11:18:16;;;;;;;1.33;1.25;;;;;;;8.17;70.45;101107.31;18421905;32;20170;-59
2023/01/14 11:28:20;;;;;;;1.65;1.08;;;;;;;9.54;67.23;101085.22;18422242;32;20167;-58
2023/01/14 11:38:26;;;;;;;1.60;1.40;;;;;;;9.05;68.40;101082.78;18420512;32;20109;-58
2023/01/14 11:48:30;;;;;;;0.80;0.80;;;;;;;9.12;68.43;101076.81;18420323;32;20092;-59
2023/01/14 11:58:35;;;;;;;0.80;0.80;;;;;;;9.69;65.06;101074.97;18419751;31;20141;-59
2023/01/14 12:08:40;;;;;;;1.17;1.17;;;;;;;10.25;63.70;101065.13;18419704;32;20123;-58
2023/01/14 12:18:48;;;;;;;2.35;2.25;;;;;;;10.10;64.93;101046.72;18419139;32;20089;-58
2023/01/14 12:28:56;;;;;;;1.08;1.08;;;;;;;10.87;62.59;101043.06;18423532;32;20167;-59
2023/01/14 12:49:24;;;;;;;0.70;0.70;;;;;;;10.47;62.67;101028.81;18426951;32;20148;-59
2023/01/14 12:59:32;;;;;;;0.50;0.50;;;;;;;11.21;60.48;101024.97;18426352;31;20093;-58
2023/01/14 13:09:44;;;;;;;0.50;0.50;;;;;;;11.38;58.93;101014.56;18382036;32;20093;-58
2023/01/14 13:19:52;;;;;;;0.82;0.82;;;;;;;11.12;58.85;101012.72;18361862;32;20153;-59
2023/01/14 13:30:29;;;;;;;0.40;0.40;;;;;;;11.64;56.41;101009.47;18361533;32;20141;-59
2023/01/14 13:40:36;;;;;;;0.80;0.80;;;;;;;11.67;57.35;101008.62;18360635;32;20183;-58
2023/01/14 13:50:41;;;;;;;0.75;0.75;;;;;;;11.67;57.27;101003.37;18360786;32;20097;-58
2023/01/14 14:00:46;;;;;;;0.40;0.40;;;;;;;11.79;56.07;101005.12;18360435;31;20098;-59
2023/01/14 14:11:00;;;;;;;0.43;0.43;;;;;;;11.75;55.00;101009.47;18360224;32;20092;-58
2023/01/14 14:21:11;;;;;;;0.70;0.70;;;;;;;11.56;54.97;101013.78;18359493;32;20089;-59
2023/01/14 14:31:16;;;;;;;1.50;1.40;;;;;;;11.74;55.39;101012.97;18359283;32;20103;-58
2023/01/14 14:41:24;;;;;;;1.05;1.05;;;;;;;11.64;55.86;101016.44;18360953;32;20104;-58
2023/01/14 14:51:29;;;;;;;1.48;1.37;;;;;;;11.37;56.31;101039.88;18357753;32;20137;-59
2023/01/14 15:01:36;;;;;;;0.40;0.40;;;;;;;11.16;56.56;101035.38;18358119;32;20447;-59
2023/01/14 15:11:43;;;;;;;0.57;0.57;;;;;;;10.89;57.20;101021.28;18356981;32;20119;-59
2023/01/14 15:21:49;;;;;;;0.80;0.80;;;;;;;10.57;57.78;101035.00;18414619;32;20096;-58
2023/01/14 15:31:52;;;;;;;0.60;0.60;;;;;;;10.08;58.69;101059.75;18405142;32;20097;-58
2023/01/14 15:41:59;;;;;;;0.50;0.50;;;;;;;9.65;59.32;101061.88;18379899;32;20101;-59
2023/01/14 15:52:05;;;;;;;1.90;1.35;;;;;;;9.11;60.12;101068.09;18374291;32;20171;-58
2023/01/14 16:02:24;;;;;;;0.50;0.50;;;;;;;8.73;60.77;101079.72;18370241;31;20368;-58
2023/01/14 16:12:27;;;;;;;1.85;0.70;;;;;;;8.35;61.85;101082.50;18373037;32;20093;-58
2023/01/14 16:22:33;;;;;;;0.65;0.65;;;;;;;8.00;62.42;101077.50;18381764;32;20105;-58
2023/01/14 16:32:36;;;;;;;1.10;1.10;;;;;;;7.76;62.33;101081.34;18373396;32;20357;-59
2023/01/14 16:42:41;;;;;;;0.60;0.60;;;;;;;7.39;62.96;101080.56;18379857;32;20142;-57
2023/01/14 16:52:45;;;;;;;1.17;1.17;;;;;;;7.03;63.23;101075.50;18364746;32;20673;-57
2023/01/14 17:02:50;;;;;;;0.50;0.50;;;;;;;6.67;63.58;101071.16;18375021;31;20089;-57
2023/01/14 17:12:53;;;;;;;0.70;0.70;;;;;;;6.44;63.72;101055.03;18415669;32;20089;-57
2023/01/14 17:23:00;;;;;;;1.40;1.37;;;;;;;6.15;63.70;101084.53;18423378;31;20089;-57
2023/01/14 17:33:03;;;;;;;1.98;1.65;;;;;;;5.93;64.08;101078.72;18369188;32;20112;-57
2023/01/14 17:43:07;;;;;;;4.15;3.80;;;;;;;5.72;64.60;101085.91;18392921;32;20416;-58
2023/01/14 17:53:11;;;;;;;25.10;13.75;;;;;;;5.64;64.15;101068.41;18394648;32;20102;-57
2023/01/14 18:03:16;;;;;;;11.05;7.75;;;;;;;5.32;64.47;101077.81;18386997;31;20102;-58
2023/01/14 18:13:19;;;;;;;4.43;2.35;;;;;;;5.13;65.02;101067.81;18376936;32;20108;-57
2023/01/14 18:23:23;;;;;;;5.53;4.15;;;;;;;4.84;65.36;101098.81;18376530;32;20175;-57
2023/01/14 18:33:27;;;;;;;6.87;5.40;;;;;;;4.76;65.07;101087.31;18359632;32;20112;-57
2023/01/14 18:43:31;;;;;;;2.53;2.33;;;;;;;4.58;65.47;101096.22;18359210;32;20116;-57
2023/01/14 18:53:35;;;;;;;5.12;4.75;;;;;;;4.44;65.13;101090.59;18359949;32;20108;-59
2023/01/14 19:03:41;;;;;;;0.80;0.80;;;;;;;4.33;65.07;101106.56;18353195;32;20388;-59
2023/01/14 19:13:44;;;;;;;1.20;1.20;;;;;;;4.32;65.02;101105.69;18367600;32;20097;-60
2023/01/14 19:23:49;;;;;;;2.17;2.03;;;;;;;4.23;65.81;101098.47;18411654;32;20123;-61
2023/01/14 19:33:53;;;;;;;1.52;1.50;;;;;;;4.35;66.94;101086.78;18353189;32;20473;-60
2023/01/14 19:43:58;;;;;;;4.95;4.65;;;;;;;4.61;66.82;101102.31;18355410;32;20097;-60
2023/01/14 19:54:01;;;;;;;2.20;2.03;;;;;;;4.75;67.40;101090.75;18352880;32;20097;-60
2023/01/14 20:04:07;;;;;;;3.58;2.65;;;;;;;4.46;70.12;101076.84;18365128;31;163157;-61
2023/01/14 20:14:11;;;;;;;2.17;1.90;;;;;;;5.16;68.01;101071.31;18381682;32;20118;-61
2023/01/14 20:24:16;;;;;;;0.85;0.85;;;;;;;5.46;67.80;101073.94;18383190;31;20089;-60
2023/01/14 20:34:19;;;;;;;0.70;0.70;;;;;;;5.58;67.86;101064.78;18382855;32;20671;-61
2023/01/14 20:54:45;;;;;;;1.10;1.10;;;;;;;5.80;68.96;101068.88;18361908;32;21032;-61
2023/01/14 21:04:50;;;;;;;0.70;0.70;;;;;;;6.33;69.03;101052.16;18390221;32;20098;-59
2023/01/14 21:25:19;;;;;;;3.12;2.35;;;;;;;6.84;68.86;101044.75;18362571;31;20097;-59
2023/01/14 21:35:23;;;;;;;5.05;1.60;;;;;;;6.89;69.16;101040.53;18361837;32;20116;-59
2023/01/14 21:45:28;;;;;;;1.10;1.10;;;;;;;6.89;68.81;101041.41;18380132;32;20161;-59
2023/01/14 21:55:51;;;;;;;0.70;0.70;;;;;;;7.10;67.93;101032.34;18390207;32;20342;-60
2023/01/14 22:06:01;;;;;;;2.28;2.08;;;;;;;6.83;69.13;101009.22;18389083;32;20126;-58
2023/01/14 22:16:05;;;;;;;1.23;1.23;;;;;;;6.74;69.75;101018.59;18394033;32;20129;-59
2023/01/14 22:26:12;;;;;;;7.82;2.55;;;;;;;6.87;69.44;100992.91;18388898;32;20097;-59
2023/01/14 22:36:16;;;;;;;3.90;3.62;;;;;;;7.04;68.84;100981.19;18384893;32;20441;-59
2023/01/14 22:46:20;;;;;;;0.60;0.60;;;;;;;6.83;69.67;100975.50;18385284;32;20094;-59
2023/01/14 22:56:23;;;;;;;0.75;0.75;;;;;;;6.99;69.04;100971.53;18392128;31;20400;-59
2023/01/14 23:06:28;;;;;;;0.50;0.50;;;;;;;6.90;69.10;100960.13;18419749;32;20101;-59
2023/01/14 23:27:17;;;;;;;0.80;0.80;;;;;;;6.48;70.35;100943.59;18418048;32;20543;-57
2023/01/14 23:37:23;;;;;;;2.05;1.95;;;;;;;7.06;67.96;100932.75;18444370;31;20093;-57
2023/01/14 23:47:32;;;;;;;1.40;1.33;;;;;;;6.53;69.30;100931.59;18417076;32;20377;-56
2023/01/14 23:57:36;;;;;;;0.65;0.65;;;;;;;6.65;68.88;100912.84;18416594;32;20111;-57
